Time;durP1;ratioP1;P1;durP2;ratioP2;P2;SDS_P1;SDS_P2;PMS_P1;PMS_P2;Temp;Humidity;BMP_temperature;BMP_pressure;BME280_temperature;BME280_humidity;BME280_pressure;Samples;Min_cycle;Max_cycle;Signal;HPM_P1;HPM_P2
2022/07/06 00:00:32;;;;;;;6.90;1.52;;;15.70;99.90;;;;;;5076476;28;20391;-79
2022/07/06 00:02:58;;;;;;;5.80;0.65;;;15.70;99.90;;;;;;5076459;28;20070;-79
2022/07/06 00:05:24;;;;;;;6.45;1.00;;;15.80;99.90;;;;;;5076173;28;20086;-79
2022/07/06 00:07:50;;;;;;;6.10;0.88;;;15.70;99.90;;;;;;5075035;28;20102;-79
2022/07/06 00:10:15;;;;;;;6.88;1.00;;;15.80;99.90;;;;;;5075030;28;20044;-79
2022/07/06 00:12:41;;;;;;;9.70;1.38;;;15.80;99.90;;;;;;5076219;28;20041;-78
2022/07/06 00:15:07;;;;;;;4.40;0.93;;;15.70;99.90;;;;;;5075331;28;20052;-79
2022/07/06 00:17:32;;;;;;;5.68;1.10;;;15.70;99.90;;;;;;5075066;28;20432;-79
2022/07/06 00:19:58;;;;;;;7.80;1.00;;;15.80;99.90;;;;;;5075872;28;20060;-79
2022/07/06 00:22:24;;;;;;;7.00;1.35;;;15.80;99.90;;;;;;5076126;28;20052;-79
2022/07/06 00:24:49;;;;;;;7.05;0.90;;;15.70;99.90;;;;;;5075933;28;20044;-79
2022/07/06 00:27:15;;;;;;;4.95;0.98;;;15.80;99.90;;;;;;5076079;28;20091;-79
2022/07/06 00:29:43;;;;;;;6.07;1.13;;;15.80;99.90;;;;;;5076126;28;20036;-79
2022/07/06 00:32:12;;;;;;;5.60;0.95;;;15.80;99.90;;;;;;5074990;28;20049;-79
2022/07/06 00:34:39;;;;;;;4.43;0.73;;;15.80;99.90;;;;;;5075899;28;20364;-79
2022/07/06 00:37:06;;;;;;;5.35;1.05;;;15.80;99.90;;;;;;5075703;28;20372;-79
2022/07/06 00:39:33;;;;;;;5.13;1.05;;;15.80;99.90;;;;;;5075892;28;20119;-79
2022/07/06 00:41:59;;;;;;;7.70;1.95;;;15.80;99.90;;;;;;5075541;28;20045;-79
2022/07/06 00:44:25;;;;;;;8.63;1.30;;;15.70;99.90;;;;;;5075752;28;20052;-79
2022/07/06 00:46:50;;;;;;;9.98;2.75;;;15.60;99.90;;;;;;5074715;28;20535;-78
2022/07/06 00:52:01;;;;;;;9.52;1.00;;;15.60;99.90;;;;;;5075542;28;20136;-79
2022/07/06 00:54:30;;;;;;;7.07;0.98;;;15.50;99.90;;;;;;5075416;28;20383;-79
2022/07/06 00:56:55;;;;;;;5.47;0.95;;;15.50;99.90;;;;;;5075544;28;20040;-79
2022/07/06 00:59:22;;;;;;;6.95;0.80;;;15.50;99.90;;;;;;5075451;28;20029;-79
2022/07/06 01:01:48;;;;;;;6.25;1.20;;;15.50;99.90;;;;;;5074336;28;20063;-79
2022/07/06 01:04:13;;;;;;;6.70;1.65;;;15.50;99.90;;;;;;5075386;28;20036;-79
2022/07/06 01:06:39;;;;;;;8.80;1.08;;;15.50;99.90;;;;;;5075326;28;20044;-79
2022/07/06 01:09:05;;;;;;;4.35;0.77;;;15.40;99.90;;;;;;5075340;28;20036;-79
2022/07/06 01:11:31;;;;;;;5.90;1.20;;;15.40;99.90;;;;;;5075248;28;20040;-78
2022/07/06 01:13:57;;;;;;;8.07;1.20;;;15.50;99.90;;;;;;5075143;28;20094;-78
2022/07/06 01:16:23;;;;;;;7.10;1.20;;;15.40;99.90;;;;;;5075202;28;20095;-79
2022/07/06 01:18:49;;;;;;;5.63;0.75;;;15.40;99.90;;;;;;5075652;28;20459;-78
2022/07/06 01:21:15;;;;;;;9.05;1.90;;;15.40;99.90;;;;;;5073461;28;20136;-79
2022/07/06 01:23:42;;;;;;;6.50;1.10;;;15.40;99.90;;;;;;5074842;28;20059;-79
2022/07/06 01:26:20;;;;;;;5.07;1.10;;;15.40;99.90;;;;;;5074801;28;20510;-79
2022/07/06 01:28:51;;;;;;;4.28;1.20;;;15.40;99.90;;;;;;5073326;28;20045;-78
2022/07/06 01:31:19;;;;;;;6.25;0.80;;;15.30;99.90;;;;;;5074857;28;20032;-79
2022/07/06 01:33:45;;;;;;;2.90;0.70;;;15.30;99.90;;;;;;5056774;28;20075;-79
2022/07/06 01:36:10;;;;;;;8.18;1.20;;;15.20;99.90;;;;;;5073349;28;20048;-79
2022/07/06 01:38:51;;;;;;;5.20;0.73;;;15.20;99.90;;;;;;5074699;28;20049;-79
2022/07/06 01:41:18;;;;;;;4.88;0.73;;;15.20;99.90;;;;;;5074472;28;20467;-79
2022/07/06 01:43:44;;;;;;;5.15;1.00;;;15.20;99.90;;;;;;5073708;28;20057;-79
2022/07/06 01:46:10;;;;;;;5.40;1.00;;;15.20;99.90;;;;;;5073201;28;20045;-79
2022/07/06 01:48:36;;;;;;;6.15;0.70;;;15.10;99.90;;;;;;5074488;28;20127;-79
2022/07/06 01:51:02;;;;;;;9.98;1.15;;;15.00;99.90;;;;;;5074485;28;20041;-79
2022/07/06 01:53:28;;;;;;;8.85;1.02;;;15.10;99.90;;;;;;5074455;28;20033;-79
2022/07/06 01:55:53;;;;;;;4.60;0.60;;;15.00;99.90;;;;;;5074293;28;20044;-79
2022/07/06 01:58:19;;;;;;;6.13;0.80;;;15.00;99.90;;;;;;5074331;28;20040;-79
2022/07/06 02:00:45;;;;;;;4.63;0.60;;;15.00;99.90;;;;;;5074042;28;20050;-79
2022/07/06 02:03:10;;;;;;;8.30;0.95;;;15.00;99.90;;;;;;5074329;28;20055;-78
2022/07/06 02:05:36;;;;;;;5.10;0.90;;;15.00;99.90;;;;;;5074265;28;20041;-79
2022/07/06 02:08:01;;;;;;;5.38;0.70;;;15.00;99.90;;;;;;5074144;28;20047;-78
2022/07/06 02:10:27;;;;;;;3.40;0.60;;;15.00;99.90;;;;;;5072891;28;20040;-79
2022/07/06 02:12:53;;;;;;;5.38;0.50;;;14.90;99.90;;;;;;5072929;28;20113;-79
2022/07/06 02:15:18;;;;;;;3.88;1.10;;;14.90;99.90;;;;;;5072984;28;20056;-79
2022/07/06 02:17:44;;;;;;;7.35;0.80;;;14.90;99.90;;;;;;5074267;28;20471;-79
2022/07/06 02:20:10;;;;;;;7.80;1.23;;;14.90;99.90;;;;;;5073568;28;20102;-79
2022/07/06 02:22:36;;;;;;;3.58;0.40;;;14.90;99.90;;;;;;5073831;28;20483;-79
2022/07/06 02:25:02;;;;;;;4.43;0.50;;;14.90;99.90;;;;;;5073895;28;20066;-79
2022/07/06 02:27:27;;;;;;;3.08;0.70;;;14.90;99.90;;;;;;5073949;28;20047;-78
2022/07/06 02:29:53;;;;;;;3.58;0.70;;;14.90;99.90;;;;;;5073728;28;20534;-78
2022/07/06 02:32:18;;;;;;;6.30;0.98;;;14.90;99.90;;;;;;5073676;28;20123;-78
2022/07/06 02:34:44;;;;;;;3.72;0.70;;;14.90;99.90;;;;;;5073834;28;20123;-78
2022/07/06 02:37:10;;;;;;;6.97;0.88;;;14.90;99.90;;;;;;5073614;28;20131;-79
2022/07/06 02:39:35;;;;;;;3.50;0.55;;;14.80;99.90;;;;;;5073606;28;20044;-79
2022/07/06 02:42:01;;;;;;;4.43;1.48;;;14.80;99.90;;;;;;5073135;28;20094;-79
2022/07/06 02:44:27;;;;;;;5.95;0.85;;;14.80;99.90;;;;;;5072562;28;20044;-79
2022/07/06 02:46:52;;;;;;;2.75;0.43;;;14.80;99.90;;;;;;5073718;28;20041;-79
2022/07/06 02:49:18;;;;;;;8.43;1.00;;;14.90;99.90;;;;;;5072736;28;20395;-79
2022/07/06 02:51:44;;;;;;;4.03;0.70;;;14.80;99.90;;;;;;5073564;28;20157;-79
2022/07/06 02:54:09;;;;;;;3.88;0.73;;;14.80;99.90;;;;;;5073574;28;20055;-79
2022/07/06 02:56:35;;;;;;;8.65;0.82;;;14.80;99.90;;;;;;5073382;28;20165;-78
2022/07/06 02:59:01;;;;;;;6.15;0.75;;;14.80;99.90;;;;;;5073540;28;20552;-79
2022/07/06 03:01:26;;;;;;;5.78;0.63;;;14.80;99.90;;;;;;5072242;28;20048;-78
2022/07/06 03:03:52;;;;;;;4.50;0.98;;;14.80;99.90;;;;;;5073026;28;20040;-79
2022/07/06 03:06:17;;;;;;;6.57;0.98;;;14.70;99.90;;;;;;5072657;28;20046;-79
2022/07/06 03:08:43;;;;;;;3.08;0.57;;;14.80;99.90;;;;;;5072581;28;20480;-79
2022/07/06 03:11:09;;;;;;;4.97;0.90;;;14.70;99.90;;;;;;5070298;28;20406;-79
2022/07/06 03:13:35;;;;;;;4.75;0.70;;;14.70;99.90;;;;;;5072100;28;20049;-78
2022/07/06 03:16:01;;;;;;;6.53;0.80;;;14.70;99.90;;;;;;5073340;28;20047;-79
2022/07/06 03:18:27;;;;;;;3.03;0.80;;;14.70;99.90;;;;;;5071991;28;20044;-78
2022/07/06 03:20:53;;;;;;;3.33;0.57;;;14.70;99.90;;;;;;5073189;28;20479;-78
2022/07/06 03:23:18;;;;;;;6.18;0.80;;;14.70;99.90;;;;;;5073066;28;20099;-79
2022/07/06 03:25:44;;;;;;;4.50;0.85;;;14.70;99.90;;;;;;5073080;28;20056;-78
2022/07/06 03:28:09;;;;;;;8.57;0.90;;;14.70;99.90;;;;;;5073262;28;20044;-79
2022/07/06 03:30:35;;;;;;;7.90;0.80;;;14.70;99.90;;;;;;5072945;28;20040;-78
2022/07/06 03:33:01;;;;;;;10.23;0.90;;;14.70;99.90;;;;;;5073181;28;20048;-79
2022/07/06 03:35:26;;;;;;;7.65;0.80;;;14.80;99.90;;;;;;5073188;28;20075;-79
2022/07/06 03:37:52;;;;;;;11.40;1.77;;;14.80;99.90;;;;;;5073157;28;20045;-79
2022/07/06 03:40:18;;;;;;;11.60;1.27;;;14.90;99.90;;;;;;5071605;28;20043;-79
2022/07/06 03:42:43;;;;;;;9.00;1.00;;;14.90;99.90;;;;;;5072716;28;20127;-79
2022/07/06 03:45:10;;;;;;;4.00;0.82;;;14.90;99.90;;;;;;5073096;28;20055;-79
2022/07/06 03:47:35;;;;;;;7.78;0.95;;;14.80;99.90;;;;;;5071850;28;20045;-79
2022/07/06 03:50:01;;;;;;;4.25;0.73;;;14.80;99.90;;;;;;5072737;28;20098;-79
2022/07/06 03:52:26;;;;;;;5.18;0.82;;;14.80;99.90;;;;;;5074583;28;20044;-79
2022/07/06 03:54:52;;;;;;;3.83;0.65;;;14.50;99.90;;;;;;5075222;28;20123;-79
2022/07/06 03:57:18;;;;;;;3.72;0.90;;;14.50;99.90;;;;;;5076625;28;20124;-79
2022/07/06 03:59:43;;;;;;;5.72;0.70;;;14.40;99.90;;;;;;5076618;28;20040;-79
2022/07/06 04:02:09;;;;;;;2.33;0.60;;;14.30;99.90;;;;;;5076094;28;20040;-79
2022/07/06 04:04:34;;;;;;;5.22;1.38;;;14.20;99.90;;;;;;5076417;28;20475;-79
2022/07/06 04:07:00;;;;;;;4.85;0.63;;;14.10;99.90;;;;;;5076403;28;20033;-79
2022/07/06 04:09:26;;;;;;;7.30;1.45;;;14.10;99.90;;;;;;5076413;28;20040;-79
2022/07/06 04:11:52;;;;;;;2.92;0.60;;;14.10;99.90;;;;;;5075141;28;20047;-78
2022/07/06 04:14:18;;;;;;;8.10;1.23;;;14.20;99.90;;;;;;5074984;28;20379;-79
2022/07/06 04:16:44;;;;;;;5.80;0.77;;;14.20;99.90;;;;;;5076247;28;20113;-78
2022/07/06 04:19:09;;;;;;;4.53;0.80;;;14.30;99.90;;;;;;5075988;28;20037;-79
2022/07/06 04:21:35;;;;;;;6.30;0.93;;;14.40;99.90;;;;;;5075741;28;20057;-79
2022/07/06 04:24:01;;;;;;;7.40;0.70;;;14.40;99.90;;;;;;5076202;28;20044;-79
2022/07/06 04:26:27;;;;;;;6.57;0.80;;;14.40;99.90;;;;;;5075885;28;20135;-78
2022/07/06 04:28:52;;;;;;;4.00;0.77;;;14.40;99.90;;;;;;5074863;28;20368;-78
2022/07/06 04:31:18;;;;;;;3.83;0.80;;;14.50;99.90;;;;;;5075994;28;20399;-78
2022/07/06 04:33:44;;;;;;;6.30;1.15;;;14.60;99.90;;;;;;5075646;28;20044;-78
2022/07/06 04:36:10;;;;;;;3.20;0.63;;;14.70;99.90;;;;;;5074707;28;20050;-78
2022/07/06 04:38:36;;;;;;;8.38;1.08;;;14.80;99.90;;;;;;5075829;28;20044;-78
2022/07/06 04:41:02;;;;;;;5.80;1.00;;;14.90;99.90;;;;;;5075909;28;20083;-78
2022/07/06 04:43:27;;;;;;;4.35;0.93;;;14.90;99.90;;;;;;5075887;28;20068;-78
2022/07/06 04:45:53;;;;;;;5.35;0.73;;;15.00;99.90;;;;;;5075830;28;20418;-78
2022/07/06 04:48:19;;;;;;;2.65;0.68;;;15.00;99.90;;;;;;5074447;28;20052;-78
2022/07/06 04:50:44;;;;;;;11.30;1.30;;;15.10;99.90;;;;;;5075384;28;20091;-78
2022/07/06 04:53:10;;;;;;;8.13;1.00;;;15.10;99.90;;;;;;5075633;28;20072;-78
2022/07/06 04:55:35;;;;;;;7.15;1.30;;;15.10;99.90;;;;;;5074140;28;20127;-78
2022/07/06 04:58:01;;;;;;;1.65;0.57;;;15.30;99.90;;;;;;5074472;28;20064;-78
2022/07/06 05:00:27;;;;;;;5.90;0.80;;;15.40;99.90;;;;;;5073942;28;20055;-78
2022/07/06 05:02:53;;;;;;;5.55;0.70;;;15.60;99.90;;;;;;5073694;28;20098;-78
2022/07/06 05:05:18;;;;;;;12.52;1.75;;;15.80;99.90;;;;;;5074705;28;20135;-78
2022/07/06 05:07:44;;;;;;;6.70;1.13;;;15.90;99.90;;;;;;5075335;28;20043;-78
2022/07/06 05:10:11;;;;;;;9.07;1.35;;;16.10;99.90;;;;;;5075262;28;20040;-79
2022/07/06 05:12:37;;;;;;;8.38;1.27;;;16.20;99.90;;;;;;5073857;28;20051;-79
2022/07/06 05:15:03;;;;;;;5.63;1.27;;;16.30;99.90;;;;;;5075117;28;20048;-79
2022/07/06 05:17:29;;;;;;;6.18;0.70;;;16.40;99.90;;;;;;5075036;28;20064;-79
2022/07/06 05:19:54;;;;;;;6.25;0.95;;;16.60;99.90;;;;;;5073635;28;20499;-79
2022/07/06 05:22:20;;;;;;;7.43;0.93;;;16.70;99.90;;;;;;5074997;28;20057;-79
2022/07/06 05:24:46;;;;;;;4.63;1.00;;;16.60;99.90;;;;;;5074962;28;20407;-78
2022/07/06 05:27:12;;;;;;;11.88;1.00;;;16.60;99.90;;;;;;5073462;28;20059;-79
2022/07/06 05:29:37;;;;;;;7.38;0.93;;;16.60;99.90;;;;;;5073662;28;20044;-79
2022/07/06 05:32:03;;;;;;;9.25;1.08;;;16.70;99.90;;;;;;5074790;28;20044;-79
2022/07/06 05:34:29;;;;;;;14.00;1.38;;;16.80;99.90;;;;;;5074523;28;20048;-79
2022/07/06 05:36:54;;;;;;;5.68;0.98;;;16.80;99.90;;;;;;5074730;28;20040;-79
2022/07/06 05:39:22;;;;;;;7.38;1.27;;;16.70;99.90;;;;;;5074700;28;20044;-79
2022/07/06 05:41:48;;;;;;;5.45;1.00;;;16.80;99.90;;;;;;5073327;28;20045;-79
2022/07/06 05:44:14;;;;;;;6.07;0.88;;;16.80;99.90;;;;;;5073087;28;20065;-79
2022/07/06 05:46:40;;;;;;;3.95;0.77;;;16.80;99.90;;;;;;5074414;28;20379;-79
2022/07/06 05:51:50;;;;;;;4.55;1.00;;;17.10;99.90;;;;;;5074171;28;20460;-79
2022/07/06 05:54:16;;;;;;;6.60;0.70;;;17.00;99.90;;;;;;5074490;28;20479;-78
2022/07/06 05:56:41;;;;;;;5.93;0.70;;;17.10;99.90;;;;;;5074384;28;20048;-79
2022/07/06 05:59:07;;;;;;;5.43;0.60;;;17.10;99.90;;;;;;5074497;28;20043;-78
2022/07/06 06:01:33;;;;;;;7.88;1.10;;;17.10;99.90;;;;;;5073952;28;20045;-79
2022/07/06 06:03:59;;;;;;;10.85;1.10;;;17.30;99.90;;;;;;5073958;28;20044;-79
2022/07/06 06:06:26;;;;;;;9.77;1.20;;;17.40;99.90;;;;;;5074210;28;20049;-79
2022/07/06 06:08:52;;;;;;;6.93;0.77;;;17.60;99.90;;;;;;5073796;28;20045;-78
2022/07/06 06:11:18;;;;;;;7.22;0.88;;;17.80;99.90;;;;;;5072938;28;20399;-79
2022/07/06 06:13:43;;;;;;;9.13;1.10;;;17.80;99.90;;;;;;5074111;28;20036;-78
2022/07/06 06:16:09;;;;;;;5.95;0.90;;;18.00;99.90;;;;;;5073101;28;20449;-78
2022/07/06 06:18:35;;;;;;;6.03;0.90;;;18.00;99.90;;;;;;5074066;28;20064;-79
2022/07/06 06:21:00;;;;;;;4.50;0.75;;;18.00;99.90;;;;;;5073561;28;20060;-78
2022/07/06 06:23:26;;;;;;;6.60;0.88;;;18.10;99.90;;;;;;5074069;28;20057;-79
2022/07/06 06:25:52;;;;;;;6.38;0.75;;;18.20;99.90;;;;;;5073932;28;20127;-79
2022/07/06 06:28:17;;;;;;;5.75;1.33;;;18.20;99.90;;;;;;5072620;28;20062;-79
2022/07/06 06:30:43;;;;;;;6.50;1.02;;;18.00;99.90;;;;;;5073894;28;20047;-79
2022/07/06 06:33:20;;;;;;;4.03;0.80;;;17.90;99.90;;;;;;5072618;28;20071;-78
2022/07/06 06:35:51;;;;;;;7.65;0.88;;;17.70;99.90;;;;;;5073483;28;20411;-78
2022/07/06 06:38:18;;;;;;;2.85;0.50;;;17.50;99.90;;;;;;5073838;28;20066;-78
2022/07/06 06:40:44;;;;;;;6.07;1.30;;;17.50;99.90;;;;;;5073804;28;20044;-78
2022/07/06 06:43:10;;;;;;;7.28;1.10;;;17.40;99.90;;;;;;5073629;28;20042;-77
2022/07/06 06:45:36;;;;;;;7.13;2.40;;;17.50;99.90;;;;;;5073703;28;20422;-77
2022/07/06 06:48:02;;;;;;;6.07;0.60;;;17.70;99.90;;;;;;5073621;28;20040;-78
2022/07/06 06:50:28;;;;;;;6.32;0.57;;;17.80;99.90;;;;;;5073658;28;20044;-78
2022/07/06 06:52:53;;;;;;;8.00;0.93;;;18.00;99.90;;;;;;5072132;28;20044;-78
2022/07/06 06:55:19;;;;;;;5.35;0.70;;;18.10;99.90;;;;;;5073607;28;20049;-78
2022/07/06 06:57:45;;;;;;;3.92;0.60;;;18.30;99.90;;;;;;5071648;28;20040;-78
2022/07/06 07:00:12;;;;;;;2.88;1.23;;;18.30;99.90;;;;;;5097062;28;20063;-78
2022/07/06 07:02:38;;;;;;;7.10;0.80;;;18.40;99.90;;;;;;5093551;28;20043;-77
2022/07/06 07:05:05;;;;;;;5.10;1.05;;;18.50;99.90;;;;;;5093585;28;20040;-78
2022/07/06 07:07:31;;;;;;;6.28;0.77;;;18.60;99.90;;;;;;5093125;28;20490;-78
2022/07/06 07:09:56;;;;;;;3.83;0.60;;;18.80;99.90;;;;;;5093203;28;20043;-78
2022/07/06 07:12:22;;;;;;;6.53;0.55;;;18.80;99.90;;;;;;5093139;28;20036;-79
2022/07/06 07:14:48;;;;;;;6.28;0.65;;;18.50;99.90;;;;;;5093472;28;20043;-77
2022/07/06 07:17:14;;;;;;;4.82;0.60;;;18.40;99.90;;;;;;5093460;28;20461;-77
2022/07/06 07:19:40;;;;;;;3.10;0.50;;;18.60;99.90;;;;;;5093157;28;20502;-79
2022/07/06 07:22:06;;;;;;;5.10;0.88;;;18.80;99.90;;;;;;5093114;28;20044;-78
2022/07/06 07:24:32;;;;;;;6.43;0.93;;;18.90;99.90;;;;;;5093195;28;20055;-78
2022/07/06 07:26:58;;;;;;;4.88;0.52;;;19.20;99.90;;;;;;5094601;28;20060;-77
2022/07/06 07:29:23;;;;;;;4.85;1.15;;;19.30;99.90;;;;;;5097008;28;20048;-78
2022/07/06 07:31:49;;;;;;;4.72;0.68;;;19.40;99.90;;;;;;5095139;28;20047;-77
2022/07/06 07:34:15;;;;;;;4.80;0.63;;;19.50;99.90;;;;;;5087975;28;20475;-79
2022/07/06 07:36:41;;;;;;;7.05;0.98;;;19.40;99.90;;;;;;5076925;28;20044;-78
2022/07/06 07:39:07;;;;;;;6.40;0.68;;;19.30;99.90;;;;;;5076615;28;20506;-79
2022/07/06 07:41:32;;;;;;;6.38;0.80;;;19.50;99.90;;;;;;5075669;28;20048;-78
2022/07/06 07:43:58;;;;;;;6.53;0.60;;;19.30;99.90;;;;;;5075155;28;20040;-78
2022/07/06 07:46:24;;;;;;;8.20;1.00;;;19.50;99.90;;;;;;5075942;28;20036;-78
2022/07/06 07:48:49;;;;;;;4.80;0.52;;;19.50;99.90;;;;;;5076456;28;20055;-78
2022/07/06 07:51:15;;;;;;;4.78;0.60;;;19.70;99.90;;;;;;5076667;28;20052;-78
2022/07/06 07:53:41;;;;;;;9.60;1.00;;;19.80;99.90;;;;;;5076596;28;20072;-79
2022/07/06 07:56:07;;;;;;;5.55;0.85;;;19.90;99.90;;;;;;5076718;28;20032;-78
2022/07/06 07:58:32;;;;;;;3.28;0.70;;;19.90;99.90;;;;;;5076632;28;20132;-79
2022/07/06 08:00:58;;;;;;;4.88;0.60;;;20.00;99.90;;;;;;5075746;28;20044;-79
2022/07/06 08:03:23;;;;;;;4.82;0.60;;;20.10;99.90;;;;;;5076362;28;20041;-79
2022/07/06 08:05:50;;;;;;;4.63;0.93;;;20.10;99.90;;;;;;5076269;28;20479;-80
2022/07/06 08:08:16;;;;;;;7.50;1.00;;;20.10;99.90;;;;;;5076279;28;20105;-79
2022/07/06 08:10:42;;;;;;;6.07;1.40;;;20.20;99.90;;;;;;5076231;28;20115;-79
2022/07/06 08:13:07;;;;;;;9.35;0.95;;;20.20;99.90;;;;;;5076403;28;20122;-79
2022/07/06 08:15:37;;;;;;;6.97;1.30;;;20.00;99.90;;;;;;5074883;28;20055;-80
2022/07/06 08:18:03;;;;;;;4.03;0.88;;;19.80;99.90;;;;;;5076334;28;20040;-79
2022/07/06 08:20:29;;;;;;;7.72;1.13;;;19.60;99.90;;;;;;5076258;28;20049;-79
2022/07/06 08:22:55;;;;;;;6.10;0.90;;;19.60;99.90;;;;;;5076181;28;20051;-79
2022/07/06 08:25:21;;;;;;;7.95;1.08;;;19.60;99.90;;;;;;5075844;28;20483;-79
2022/07/06 08:27:48;;;;;;;5.22;0.60;;;19.60;99.90;;;;;;5076277;28;20059;-79
2022/07/06 08:30:13;;;;;;;5.25;0.93;;;19.40;99.90;;;;;;5076119;28;20157;-79
2022/07/06 08:32:41;;;;;;;6.70;0.70;;;19.40;99.90;;;;;;5075760;28;20105;-79
2022/07/06 08:35:07;;;;;;;2.08;0.70;;;19.50;99.90;;;;;;5075987;28;20040;-79
2022/07/06 08:37:32;;;;;;;6.20;1.27;;;19.60;99.90;;;;;;5074745;28;20052;-79
2022/07/06 08:39:58;;;;;;;4.70;0.85;;;19.40;99.90;;;;;;5074999;28;20558;-79
2022/07/06 08:42:31;;;;;;;3.80;0.85;;;19.40;99.90;;;;;;5075807;28;20487;-79
2022/07/06 08:45:02;;;;;;;6.22;0.73;;;19.40;99.90;;;;;;5074412;28;20127;-79
2022/07/06 08:47:29;;;;;;;5.07;1.45;;;19.40;99.90;;;;;;5075806;28;20106;-79
2022/07/06 08:49:56;;;;;;;4.50;1.02;;;19.40;99.90;;;;;;5075763;28;20040;-79
2022/07/06 08:52:23;;;;;;;3.75;0.98;;;19.20;99.90;;;;;;5075522;28;20048;-79
2022/07/06 08:54:49;;;;;;;7.65;2.08;;;19.10;99.90;;;;;;5075361;28;20514;-79
2022/07/06 08:57:15;;;;;;;7.55;1.00;;;19.20;99.90;;;;;;5075617;28;20045;-78
2022/07/06 08:59:41;;;;;;;6.78;0.98;;;19.30;99.90;;;;;;5075561;28;20047;-79
2022/07/06 09:02:09;;;;;;;6.70;0.90;;;19.50;99.90;;;;;;5075248;28;20047;-79
2022/07/06 09:04:36;;;;;;;6.38;0.90;;;19.70;99.90;;;;;;5075208;28;20067;-79
2022/07/06 09:07:02;;;;;;;8.75;1.00;;;20.00;99.90;;;;;;5075055;28;20459;-79
2022/07/06 09:09:30;;;;;;;7.65;1.30;;;20.30;99.90;;;;;;5075318;28;20044;-79
2022/07/06 09:11:56;;;;;;;4.32;0.90;;;20.30;99.90;;;;;;5075060;28;20546;-79
2022/07/06 09:14:22;;;;;;;5.07;0.70;;;20.20;99.90;;;;;;5073694;28;20041;-79
2022/07/06 09:17:01;;;;;;;5.57;0.90;;;19.80;99.90;;;;;;5075151;28;20047;-79
2022/07/06 09:19:26;;;;;;;5.28;1.10;;;19.70;99.90;;;;;;5074901;28;20080;-78
2022/07/06 09:21:54;;;;;;;7.63;0.95;;;19.40;99.90;;;;;;5075045;28;20133;-79
2022/07/06 09:24:19;;;;;;;5.88;1.42;;;19.40;99.90;;;;;;5074883;28;20550;-79
2022/07/06 09:26:47;;;;;;;8.75;0.95;;;19.20;99.90;;;;;;5074961;28;20127;-79
2022/07/06 09:29:13;;;;;;;4.93;1.00;;;19.40;99.90;;;;;;5073547;28;20044;-79
2022/07/06 09:31:39;;;;;;;5.07;0.90;;;19.60;99.90;;;;;;5074830;28;20044;-79
2022/07/06 09:34:09;;;;;;;6.10;1.15;;;19.80;99.90;;;;;;5074875;28;20047;-79
2022/07/06 09:36:49;;;;;;;4.78;0.93;;;19.90;99.90;;;;;;5074817;28;20036;-79
2022/07/06 09:39:20;;;;;;;11.23;1.00;;;20.10;99.90;;;;;;5073570;28;20044;-79
2022/07/06 09:41:48;;;;;;;3.50;0.80;;;20.10;99.90;;;;;;5073436;28;20501;-79
2022/07/06 09:44:19;;;;;;;13.18;2.03;;;20.30;99.90;;;;;;5074403;28;20044;-79
2022/07/06 09:46:47;;;;;;;7.07;1.13;;;20.30;99.90;;;;;;5074677;28;20051;-79
2022/07/06 09:49:16;;;;;;;8.60;1.35;;;20.40;99.90;;;;;;5074259;28;20095;-78
2022/07/06 09:51:41;;;;;;;4.40;1.30;;;20.50;99.90;;;;;;5074558;28;20036;-79
2022/07/06 09:54:08;;;;;;;4.65;0.98;;;20.60;99.90;;;;;;5074491;28;20051;-79
2022/07/06 09:56:41;;;;;;;5.63;0.65;;;20.80;99.90;;;;;;5074408;28;20044;-79
2022/07/06 09:59:22;;;;;;;6.82;1.40;;;20.90;99.90;;;;;;5074270;28;20048;-79
2022/07/06 10:01:51;;;;;;;13.15;1.13;;;21.10;99.90;;;;;;5074300;28;20041;-79
2022/07/06 10:04:18;;;;;;;3.65;0.88;;;21.00;99.90;;;;;;5074016;28;20054;-79
2022/07/06 10:06:44;;;;;;;6.85;1.73;;;21.00;99.90;;;;;;5074144;28;20036;-79
2022/07/06 10:09:11;;;;;;;4.15;0.52;;;20.90;99.90;;;;;;5074149;28;20044;-80
2022/07/06 10:11:46;;;;;;;7.60;1.05;;;21.10;99.90;;;;;;5073818;28;20036;-79
2022/07/06 10:14:17;;;;;;;4.57;1.20;;;21.20;99.90;;;;;;5074179;28;20040;-79
2022/07/06 10:16:45;;;;;;;6.30;0.80;;;21.40;99.90;;;;;;5074081;28;20056;-79
2022/07/06 10:19:10;;;;;;;4.57;0.60;;;21.20;99.90;;;;;;5073790;28;20123;-79
2022/07/06 10:21:37;;;;;;;3.67;0.60;;;20.90;99.90;;;;;;5073613;28;20190;-79
2022/07/06 10:24:05;;;;;;;6.03;0.82;;;20.70;99.90;;;;;;5072701;28;20059;-79
2022/07/06 10:26:32;;;;;;;4.32;0.98;;;20.70;99.90;;;;;;5073721;28;20491;-79
2022/07/06 10:29:02;;;;;;;3.35;0.60;;;20.90;99.90;;;;;;5072486;28;20063;-79
2022/07/06 10:31:29;;;;;;;3.95;0.60;;;21.00;99.90;;;;;;5073630;28;20055;-79
2022/07/06 10:33:58;;;;;;;2.58;1.25;;;20.90;99.90;;;;;;5073887;28;20166;-79
2022/07/06 10:36:24;;;;;;;4.82;0.57;;;20.80;99.90;;;;;;5073783;28;20119;-79
2022/07/06 10:38:51;;;;;;;4.72;1.00;;;20.80;99.90;;;;;;5073557;28;20048;-79
2022/07/06 10:41:19;;;;;;;7.15;0.93;;;21.00;99.90;;;;;;5073776;28;20043;-79
2022/07/06 10:43:46;;;;;;;1.77;0.47;;;21.00;99.90;;;;;;5073596;28;20394;-79
2022/07/06 10:46:14;;;;;;;3.42;0.70;;;20.90;99.90;;;;;;5073585;28;20040;-79
2022/07/06 10:48:41;;;;;;;4.43;0.68;;;20.80;99.90;;;;;;5073669;28;20072;-79
2022/07/06 10:51:08;;;;;;;4.85;0.90;;;21.00;99.90;;;;;;5073601;28;20051;-79
2022/07/06 10:53:39;;;;;;;3.58;0.70;;;21.20;99.90;;;;;;5073631;28;20177;-79
2022/07/06 10:56:05;;;;;;;2.67;0.60;;;21.20;99.90;;;;;;5073261;28;20452;-79
2022/07/06 10:58:41;;;;;;;4.82;0.88;;;21.00;99.90;;;;;;5073361;28;20055;-79
2022/07/06 11:01:11;;;;;;;6.03;0.90;;;21.00;99.90;;;;;;5073572;28;20094;-79
2022/07/06 11:03:43;;;;;;;4.53;0.80;;;21.20;99.90;;;;;;5077357;28;20045;-79
2022/07/06 11:06:19;;;;;;;4.82;0.80;;;21.50;99.90;;;;;;5077761;28;20127;-79
2022/07/06 11:08:57;;;;;;;3.97;0.80;;;21.70;99.90;;;;;;5077711;28;20047;-80
2022/07/06 11:11:25;;;;;;;2.58;0.70;;;21.90;99.90;;;;;;5077444;28;20036;-79
2022/07/06 11:13:59;;;;;;;3.03;1.00;;;22.30;99.90;;;;;;5077499;28;20119;-79
2022/07/06 11:16:27;;;;;;;3.25;0.73;;;22.50;99.90;;;;;;5077541;28;20087;-80
2022/07/06 11:19:10;;;;;;;5.63;0.90;;;22.60;99.90;;;;;;5077483;28;20029;-80
2022/07/06 11:22:05;;;;;;;2.38;0.73;;;22.70;99.90;;;;;;5075893;28;20059;-80
2022/07/06 11:24:32;;;;;;;3.00;0.70;;;22.60;99.90;;;;;;5077185;28;20048;-81
2022/07/06 11:26:59;;;;;;;3.92;0.80;;;22.70;99.90;;;;;;5077393;28;20113;-80
2022/07/06 11:29:26;;;;;;;2.35;0.63;;;22.70;99.90;;;;;;5077268;28;20045;-81
2022/07/06 11:31:55;;;;;;;2.50;0.65;;;22.40;99.90;;;;;;5077269;28;20033;-80
2022/07/06 11:34:31;;;;;;;2.92;0.73;;;22.20;99.90;;;;;;5077151;28;20106;-81
2022/07/06 11:37:03;;;;;;;5.65;1.35;;;22.30;99.90;;;;;;5077165;28;20072;-80
2022/07/06 11:39:31;;;;;;;2.60;1.00;;;22.10;99.90;;;;;;5077077;28;20131;-80
2022/07/06 11:41:58;;;;;;;2.22;0.60;;;22.30;99.90;;;;;;5076875;28;20119;-81
2022/07/06 11:44:24;;;;;;;2.60;0.80;;;22.60;99.90;;;;;;5076723;28;20045;-80
2022/07/06 11:46:50;;;;;;;2.42;0.82;;;22.60;99.90;;;;;;5076622;28;20399;-80
2022/07/06 11:49:17;;;;;;;2.88;0.73;;;22.60;99.90;;;;;;5076697;28;20048;-80
2022/07/06 11:51:44;;;;;;;1.98;1.00;;;22.30;99.90;;;;;;5076805;28;20036;-80
2022/07/06 11:54:20;;;;;;;4.78;0.80;;;22.00;99.90;;;;;;5076617;28;20527;-79
2022/07/06 11:56:59;;;;;;;2.72;1.00;;;21.90;99.90;;;;;;5075680;28;20471;-79
2022/07/06 11:59:26;;;;;;;3.88;0.60;;;21.80;99.90;;;;;;5075206;28;20554;-80
2022/07/06 12:02:11;;;;;;;5.03;1.38;;;21.90;99.90;;;;;;5076246;28;20483;-80
2022/07/06 12:04:40;;;;;;;6.47;1.35;;;21.70;99.90;;;;;;5076475;28;20507;-79
2022/07/06 12:07:13;;;;;;;3.25;0.80;;;21.50;99.90;;;;;;5076446;28;20070;-80
2022/07/06 12:09:41;;;;;;;2.22;0.80;;;21.50;99.90;;;;;;5075042;28;20123;-80
2022/07/06 12:12:08;;;;;;;2.97;1.00;;;21.50;99.90;;;;;;5076468;28;20106;-80
2022/07/06 12:14:36;;;;;;;3.58;1.00;;;21.60;99.90;;;;;;5076081;28;20053;-79
2022/07/06 12:17:08;;;;;;;3.45;0.88;;;21.70;99.90;;;;;;5076404;28;20115;-79
2022/07/06 12:19:35;;;;;;;3.97;0.70;;;21.60;99.90;;;;;;5076044;28;20110;-80
2022/07/06 12:22:03;;;;;;;3.42;0.75;;;21.60;99.90;;;;;;5076269;28;20044;-80
2022/07/06 12:24:32;;;;;;;2.70;0.75;;;21.60;99.90;;;;;;5076170;28;20106;-80
2022/07/06 12:27:08;;;;;;;5.53;1.00;;;21.50;99.90;;;;;;5075964;28;20048;-80
2022/07/06 12:29:34;;;;;;;2.17;0.70;;;21.40;99.90;;;;;;5076166;28;20086;-80
2022/07/06 12:32:01;;;;;;;4.50;1.15;;;21.30;99.90;;;;;;5074850;28;20446;-79
2022/07/06 12:34:30;;;;;;;3.97;0.90;;;21.20;99.90;;;;;;5075823;28;20052;-79
2022/07/06 12:36:57;;;;;;;5.72;0.98;;;21.20;99.90;;;;;;5074783;28;20175;-80
2022/07/06 12:39:25;;;;;;;4.00;1.00;;;21.10;99.90;;;;;;5076059;28;20063;-80
2022/07/06 12:42:13;;;;;;;6.35;0.95;;;21.00;99.90;;;;;;5075886;28;20069;-79
2022/07/06 12:44:44;;;;;;;4.70;1.25;;;20.80;99.90;;;;;;5075771;28;20129;-80
2022/07/06 12:47:11;;;;;;;3.50;1.23;;;20.80;99.90;;;;;;5075581;28;20507;-80
2022/07/06 12:49:38;;;;;;;2.53;1.00;;;20.80;99.90;;;;;;5074538;28;20060;-80